createdAt,value
2022-12-03T00:02:15.802Z,10.43
2022-12-03T00:04:42.464Z,8.38
2022-12-03T00:07:09.011Z,8.88
2022-12-03T00:09:35.478Z,11.02
2022-12-03T00:12:01.985Z,11.15
2022-12-03T00:14:28.580Z,8.98
2022-12-03T00:16:55.077Z,10.68
2022-12-03T00:19:21.657Z,11.90
2022-12-03T00:21:48.133Z,9.60
2022-12-03T00:24:14.653Z,9.95
2022-12-03T00:26:41.200Z,10.30
2022-12-03T00:29:07.701Z,9.85
2022-12-03T00:31:34.370Z,9.40
2022-12-03T00:34:00.880Z,11.32
2022-12-03T00:36:27.455Z,10.80
2022-12-03T00:38:54.028Z,9.43
2022-12-03T00:41:20.497Z,9.38
2022-12-03T00:43:46.948Z,10.98
2022-12-03T00:46:16.915Z,10.55
2022-12-03T00:48:46.417Z,10.38
2022-12-03T00:51:13.102Z,9.68
2022-12-03T00:53:39.748Z,10.63
2022-12-03T00:56:06.729Z,8.20
2022-12-03T00:58:33.401Z,9.93
2022-12-03T01:01:00.017Z,8.90
2022-12-03T01:03:26.656Z,8.25
2022-12-03T01:05:53.180Z,10.13
2022-12-03T01:08:19.717Z,8.75
2022-12-03T01:10:46.257Z,11.38
2022-12-03T01:13:12.792Z,9.10
2022-12-03T01:15:39.295Z,7.70
2022-12-03T01:18:05.881Z,8.10
2022-12-03T01:20:32.355Z,9.45
2022-12-03T01:22:59.055Z,8.77
2022-12-03T01:25:25.552Z,8.35
2022-12-03T01:27:52.089Z,9.10
2022-12-03T01:30:18.708Z,9.93
2022-12-03T01:32:45.161Z,8.27
2022-12-03T01:35:11.664Z,8.43
2022-12-03T01:37:38.219Z,7.03
2022-12-03T01:40:07.114Z,7.53
2022-12-03T01:42:37.131Z,8.02
2022-12-03T01:45:04.392Z,8.70
2022-12-03T01:47:36.146Z,7.53
2022-12-03T01:50:07.423Z,8.32
2022-12-03T01:52:38.277Z,8.07
2022-12-03T01:55:12.394Z,8.43
2022-12-03T01:57:48.373Z,9.55
2022-12-03T02:00:21.042Z,7.18
2022-12-03T02:02:59.507Z,8.90
2022-12-03T02:05:32.206Z,7.68
2022-12-03T02:07:59.796Z,7.15
2022-12-03T02:10:31.699Z,8.38
2022-12-03T02:13:02.958Z,6.88
2022-12-03T02:15:32.428Z,6.90
2022-12-03T02:17:59.284Z,7.68
2022-12-03T02:20:26.528Z,6.63
2022-12-03T02:23:23.889Z,7.63
2022-12-03T02:25:50.416Z,7.57
2022-12-03T02:28:16.999Z,6.00
2022-12-03T02:30:43.538Z,6.32
2022-12-03T02:33:10.564Z,6.53
2022-12-03T02:35:38.363Z,6.60
2022-12-03T02:38:18.290Z,6.25
2022-12-03T02:40:47.000Z,5.75
2022-12-03T02:43:15.853Z,5.40
2022-12-03T02:45:44.752Z,6.13
2022-12-03T02:48:16.792Z,6.28
2022-12-03T02:50:48.763Z,6.13
2022-12-03T02:53:19.706Z,6.78
2022-12-03T02:55:47.498Z,7.03
2022-12-03T02:58:15.038Z,5.82
2022-12-03T03:00:43.154Z,7.80
2022-12-03T03:05:39.641Z,8.15
2022-12-03T03:08:08.373Z,5.90
2022-12-03T03:10:38.820Z,6.03
2022-12-03T03:13:15.187Z,5.65
2022-12-03T03:15:42.661Z,6.65
2022-12-03T03:18:11.171Z,5.80
2022-12-03T03:20:38.680Z,5.72
2022-12-03T03:23:18.252Z,5.45
2022-12-03T03:25:49.668Z,6.03
2022-12-03T03:28:16.826Z,5.30
2022-12-03T03:30:44.419Z,5.20
2022-12-03T03:33:13.180Z,6.13
2022-12-03T03:35:40.231Z,5.47
2022-12-03T03:38:08.132Z,5.18
2022-12-03T03:40:34.994Z,6.30
2022-12-03T03:43:01.984Z,5.55
2022-12-03T03:45:29.597Z,7.65
2022-12-03T03:47:59.258Z,7.28
2022-12-03T03:50:28.815Z,5.97
2022-12-03T03:52:56.661Z,5.47
2022-12-03T03:55:23.574Z,6.15
2022-12-03T03:57:50.354Z,9.27
2022-12-03T04:00:17.263Z,7.13
2022-12-03T04:02:43.864Z,7.53
2022-12-03T04:05:17.079Z,6.68
2022-12-03T04:07:43.697Z,5.85
2022-12-03T04:10:11.014Z,6.57
2022-12-03T04:12:37.553Z,6.40
2022-12-03T04:15:04.649Z,6.88
2022-12-03T04:17:31.296Z,6.55
2022-12-03T04:19:57.769Z,6.95
2022-12-03T04:22:24.616Z,6.38
2022-12-03T04:24:51.448Z,6.47
2022-12-03T04:27:18.279Z,7.60
2022-12-03T04:29:44.788Z,6.50
2022-12-03T04:32:11.358Z,5.68
2022-12-03T04:34:38.045Z,7.03
2022-12-03T04:37:05.136Z,6.93
2022-12-03T04:39:31.666Z,6.70
2022-12-03T04:41:58.244Z,8.30
2022-12-03T04:44:24.854Z,7.90
2022-12-03T04:46:51.387Z,5.32
2022-12-03T04:49:17.997Z,8.10
2022-12-03T04:51:44.568Z,7.18
2022-12-03T04:54:11.216Z,6.35
2022-12-03T04:56:37.654Z,6.63
2022-12-03T04:59:04.302Z,6.95
2022-12-03T05:01:30.907Z,7.78
2022-12-03T05:03:57.485Z,6.72
2022-12-03T05:06:24.171Z,7.18
2022-12-03T05:08:50.618Z,7.13
2022-12-03T05:11:17.220Z,7.72
2022-12-03T05:13:47.513Z,4.88
2022-12-03T05:16:14.267Z,9.70
2022-12-03T05:18:40.868Z,6.80
2022-12-03T05:21:07.305Z,8.80
2022-12-03T05:23:33.775Z,8.82
2022-12-03T05:26:00.276Z,9.75
2022-12-03T05:28:26.720Z,9.50
2022-12-03T05:30:53.385Z,7.45
2022-12-03T05:33:20.249Z,7.43
2022-12-03T05:35:47.298Z,7.05
2022-12-03T05:38:13.884Z,9.75
2022-12-03T05:40:40.453Z,9.32
2022-12-03T05:43:06.969Z,8.77
2022-12-03T05:45:36.447Z,9.18
2022-12-03T05:48:05.150Z,8.00
2022-12-03T05:50:33.989Z,9.70
2022-12-03T05:53:14.172Z,7.07
2022-12-03T05:55:40.738Z,8.80
2022-12-03T05:58:07.926Z,8.18
2022-12-03T06:00:42.080Z,8.07
2022-12-03T06:03:09.847Z,9.98
2022-12-03T06:05:36.474Z,7.25
2022-12-03T06:08:03.200Z,9.07
2022-12-03T06:10:29.911Z,8.93
2022-12-03T06:12:56.574Z,9.55
2022-12-03T06:15:23.309Z,8.52
2022-12-03T06:17:49.969Z,10.20
2022-12-03T06:20:19.021Z,8.00
2022-12-03T06:22:45.843Z,7.70
2022-12-03T06:25:13.531Z,8.40
2022-12-03T06:27:40.165Z,9.07
2022-12-03T06:30:07.801Z,8.77
2022-12-03T06:32:34.413Z,8.00
2022-12-03T06:35:00.913Z,8.85
2022-12-03T06:37:27.369Z,9.85
2022-12-03T06:39:53.990Z,8.95
2022-12-03T06:42:20.564Z,8.10
2022-12-03T06:44:47.130Z,9.38
2022-12-03T06:47:13.585Z,9.13
2022-12-03T06:49:40.078Z,9.52
2022-12-03T06:52:06.612Z,9.77
2022-12-03T06:54:33.201Z,8.75
2022-12-03T06:56:59.946Z,7.82
2022-12-03T06:59:26.403Z,9.73
2022-12-03T07:01:53.414Z,10.13
2022-12-03T07:04:19.923Z,9.98
2022-12-03T07:06:46.493Z,8.90
2022-12-03T07:09:13.737Z,8.77
2022-12-03T07:11:40.294Z,7.70
2022-12-03T07:14:08.258Z,8.63
2022-12-03T07:16:35.893Z,7.57
2022-12-03T07:19:04.580Z,8.70
2022-12-03T07:21:31.522Z,8.65
2022-12-03T07:23:58.264Z,9.80
2022-12-03T07:26:25.026Z,8.95
2022-12-03T07:28:51.505Z,8.68
2022-12-03T07:31:18.005Z,9.43
2022-12-03T07:33:44.608Z,8.52
2022-12-03T07:36:11.142Z,8.10
2022-12-03T07:38:37.628Z,7.78
2022-12-03T07:41:04.164Z,9.27
2022-12-03T07:43:30.916Z,6.95
2022-12-03T07:45:57.492Z,8.10
2022-12-03T07:48:24.109Z,8.85
2022-12-03T07:50:50.625Z,7.95
2022-12-03T07:53:17.364Z,7.95
2022-12-03T07:55:43.852Z,8.38
2022-12-03T07:58:10.466Z,8.90
2022-12-03T08:00:37.118Z,8.52
2022-12-03T08:03:03.698Z,10.65
2022-12-03T08:05:30.171Z,8.25
2022-12-03T08:07:56.956Z,7.82
2022-12-03T08:10:25.585Z,7.68
2022-12-03T08:12:52.422Z,8.13
2022-12-03T08:15:23.057Z,8.88
2022-12-03T08:17:58.523Z,8.10
2022-12-03T08:20:28.109Z,9.13
2022-12-03T08:22:55.903Z,9.68
2022-12-03T08:25:23.957Z,7.63
2022-12-03T08:27:53.910Z,8.40
2022-12-03T08:30:20.681Z,7.45
2022-12-03T08:32:47.984Z,8.80
2022-12-03T08:35:19.366Z,8.18
2022-12-03T08:37:45.932Z,8.45
2022-12-03T08:40:36.057Z,8.85
2022-12-03T08:43:16.082Z,8.98
2022-12-03T08:45:42.886Z,7.90
2022-12-03T08:50:46.598Z,5.57
2022-12-03T08:53:13.018Z,6.53
2022-12-03T08:55:45.334Z,6.82
2022-12-03T08:58:37.527Z,6.35
2022-12-03T09:01:31.810Z,7.60
2022-12-03T09:04:21.821Z,7.53
2022-12-03T09:06:48.606Z,9.18
2022-12-03T09:09:15.449Z,8.52
2022-12-03T09:11:42.170Z,8.38
2022-12-03T09:14:12.582Z,9.60
2022-12-03T09:16:43.983Z,8.50
2022-12-03T09:19:10.534Z,8.90
2022-12-03T09:21:37.027Z,8.50
2022-12-03T09:24:03.822Z,9.05
2022-12-03T09:26:30.331Z,7.70
2022-12-03T09:28:56.958Z,8.50
2022-12-03T09:31:24.362Z,9.55
2022-12-03T09:33:50.960Z,8.38
2022-12-03T09:36:17.517Z,8.18
2022-12-03T09:38:47.740Z,10.20
2022-12-03T09:41:14.925Z,8.88
2022-12-03T09:44:03.151Z,8.65
2022-12-03T09:46:30.176Z,7.35
2022-12-03T09:48:57.422Z,7.45
2022-12-03T09:51:30.483Z,10.50
2022-12-03T09:53:59.799Z,8.95
2022-12-03T09:56:26.400Z,8.23
2022-12-03T09:58:53.034Z,9.00
2022-12-03T10:01:21.235Z,8.48
2022-12-03T10:03:50.723Z,9.10
2022-12-03T10:06:23.807Z,8.77
2022-12-03T10:08:54.144Z,10.43
2022-12-03T10:11:24.500Z,9.43
2022-12-03T10:13:53.919Z,9.00
2022-12-03T10:16:21.291Z,9.77
2022-12-03T10:19:00.524Z,7.68
2022-12-03T10:21:31.483Z,9.10
2022-12-03T10:24:16.480Z,10.63
2022-12-03T10:26:44.504Z,11.13
2022-12-03T10:31:40.987Z,8.32
2022-12-03T10:34:09.713Z,8.73
2022-12-03T10:36:36.494Z,9.27
2022-12-03T10:39:08.759Z,6.82
2022-12-03T10:41:35.893Z,8.52
2022-12-03T10:44:28.698Z,8.77
2022-12-03T10:47:07.295Z,7.43
2022-12-03T10:49:34.022Z,7.72
2022-12-03T10:52:00.675Z,8.38
2022-12-03T10:54:29.762Z,9.07
2022-12-03T10:56:56.570Z,7.65
2022-12-03T10:59:31.868Z,7.65
2022-12-03T11:01:58.508Z,8.43
2022-12-03T11:04:35.895Z,7.68
2022-12-03T11:07:11.663Z,8.80
2022-12-03T11:09:38.147Z,8.35
2022-12-03T11:12:07.134Z,9.63
2022-12-03T11:14:52.109Z,7.32
2022-12-03T11:17:51.765Z,8.50
2022-12-03T11:20:22.564Z,7.70
2022-12-03T11:22:54.473Z,6.97
2022-12-03T11:25:27.201Z,8.85
2022-12-03T11:28:12.103Z,9.45
2022-12-03T11:31:07.158Z,9.15
2022-12-03T11:33:40.474Z,8.27
2022-12-03T11:36:06.969Z,9.23
2022-12-03T11:38:52.953Z,9.25
2022-12-03T11:41:25.962Z,9.52
2022-12-03T11:43:52.491Z,9.95
2022-12-03T11:46:23.327Z,9.38
2022-12-03T11:48:52.389Z,9.68
2022-12-03T11:51:22.251Z,8.27
2022-12-03T11:53:51.384Z,10.15
2022-12-03T11:56:25.125Z,8.90
2022-12-03T11:59:00.457Z,8.73
2022-12-03T12:01:39.273Z,9.98
2022-12-03T12:04:07.868Z,8.82
2022-12-03T12:06:42.648Z,9.90
2022-12-03T12:09:09.925Z,10.30
2022-12-03T12:11:40.409Z,12.70
2022-12-03T12:14:11.906Z,9.75
2022-12-03T12:16:52.632Z,10.07
2022-12-03T12:19:42.241Z,10.05
2022-12-03T12:22:23.983Z,9.07
2022-12-03T12:24:55.801Z,9.48
2022-12-03T12:27:31.178Z,9.77
2022-12-03T12:30:03.734Z,10.60
2022-12-03T12:32:33.106Z,11.77
2022-12-03T12:35:15.312Z,11.13
2022-12-03T12:37:48.168Z,10.55
2022-12-03T12:40:18.192Z,9.50
2022-12-03T12:45:24.735Z,8.15
2022-12-03T12:48:09.754Z,9.93
2022-12-03T12:50:38.442Z,11.30
2022-12-03T12:53:10.628Z,10.25
2022-12-03T12:55:39.121Z,9.18
2022-12-03T12:58:15.688Z,10.60
2022-12-03T13:00:42.981Z,11.40
2022-12-03T13:03:11.818Z,9.07
2022-12-03T13:05:44.318Z,8.10
2022-12-03T13:08:37.666Z,11.23
2022-12-03T13:11:04.245Z,10.63
2022-12-03T13:13:43.364Z,8.15
2022-12-03T13:16:23.835Z,8.98
2022-12-03T13:18:54.878Z,10.85
2022-12-03T13:21:40.892Z,10.68
2022-12-03T13:24:39.110Z,9.95
2022-12-03T13:27:17.545Z,9.32
2022-12-03T13:29:45.121Z,8.10
2022-12-03T13:32:23.077Z,6.93
2022-12-03T13:37:20.771Z,9.73
2022-12-03T13:39:53.412Z,8.73
2022-12-03T13:42:22.670Z,10.00
2022-12-03T13:44:50.052Z,9.73
2022-12-03T13:47:20.707Z,9.10
2022-12-03T13:49:52.561Z,10.63
2022-12-03T13:52:23.811Z,7.65
2022-12-03T13:54:55.992Z,9.43
2022-12-03T13:57:23.032Z,8.25
2022-12-03T13:59:49.843Z,9.43
2022-12-03T14:02:16.449Z,8.50
2022-12-03T14:04:43.026Z,8.80
2022-12-03T14:07:09.658Z,7.30
2022-12-03T14:09:36.091Z,8.65
2022-12-03T14:12:03.588Z,6.90
2022-12-03T14:14:30.132Z,7.13
2022-12-03T14:16:59.866Z,8.70
2022-12-03T14:19:26.877Z,6.65
2022-12-03T14:21:53.330Z,7.55
2022-12-03T14:24:19.922Z,7.20
2022-12-03T14:26:46.524Z,8.27
2022-12-03T14:29:13.048Z,7.57
2022-12-03T14:31:39.707Z,8.90
2022-12-03T14:34:06.489Z,7.80
2022-12-03T14:36:33.073Z,10.20
2022-12-03T14:38:59.529Z,9.75
2022-12-03T14:41:25.981Z,8.70
2022-12-03T14:43:52.543Z,8.23
2022-12-03T14:46:19.622Z,8.48
2022-12-03T14:48:46.158Z,8.90
2022-12-03T14:51:12.614Z,9.10
2022-12-03T14:53:39.133Z,11.35
2022-12-03T14:56:05.626Z,9.55
2022-12-03T14:58:32.209Z,9.95
2022-12-03T15:00:58.729Z,9.27
2022-12-03T15:03:25.256Z,10.32
2022-12-03T15:05:51.962Z,10.85
2022-12-03T15:08:18.468Z,9.88
2022-12-03T15:10:45.073Z,9.13
2022-12-03T15:13:11.565Z,10.45
2022-12-03T15:15:38.043Z,8.95
2022-12-03T15:18:04.598Z,10.07
2022-12-03T15:20:31.107Z,8.68
2022-12-03T15:22:57.568Z,10.10
2022-12-03T15:25:24.030Z,7.85
2022-12-03T15:27:50.606Z,9.80
2022-12-03T15:30:17.393Z,9.57
2022-12-03T15:32:43.854Z,9.52
2022-12-03T15:35:10.374Z,10.35
2022-12-03T15:37:36.814Z,8.60
2022-12-03T15:40:03.477Z,8.73
2022-12-03T15:42:29.999Z,12.80
2022-12-03T15:44:56.596Z,11.60
2022-12-03T15:47:23.255Z,10.55
2022-12-03T15:49:49.991Z,10.30
2022-12-03T15:52:16.428Z,10.40
2022-12-03T15:54:42.970Z,11.32
2022-12-03T15:57:09.641Z,10.23
2022-12-03T15:59:36.089Z,10.45
2022-12-03T16:02:02.653Z,10.90
2022-12-03T16:04:29.259Z,10.40
2022-12-03T16:06:55.786Z,11.18
2022-12-03T16:09:27.027Z,10.52
2022-12-03T16:11:54.560Z,12.32
2022-12-03T16:14:21.078Z,12.48
2022-12-03T16:16:47.725Z,9.63
2022-12-03T16:19:14.244Z,11.82
2022-12-03T16:21:40.780Z,15.73
2022-12-03T16:24:07.463Z,13.35
2022-12-03T16:26:34.039Z,12.80
2022-12-03T16:29:00.553Z,11.95
2022-12-03T16:31:27.087Z,13.75
2022-12-03T16:33:53.672Z,12.93
2022-12-03T16:36:20.266Z,11.50
2022-12-03T16:38:46.809Z,12.35
2022-12-03T16:41:13.261Z,11.68
2022-12-03T16:43:39.836Z,12.57
2022-12-03T16:46:06.565Z,12.82
2022-12-03T16:48:33.062Z,12.48
2022-12-03T16:50:59.638Z,10.38
2022-12-03T16:53:26.174Z,13.82
2022-12-03T16:55:52.641Z,10.75
2022-12-03T16:58:19.081Z,11.07
2022-12-03T17:00:45.690Z,13.10
2022-12-03T17:03:12.283Z,11.40
2022-12-03T17:05:38.752Z,13.55
2022-12-03T17:08:05.377Z,13.65
2022-12-03T17:10:32.025Z,12.32
2022-12-03T17:13:09.474Z,13.80
2022-12-03T17:15:37.229Z,14.07
2022-12-03T17:18:03.959Z,14.02
2022-12-03T17:20:31.196Z,12.57
2022-12-03T17:22:59.470Z,11.77
2022-12-03T17:25:27.206Z,9.85
2022-12-03T17:27:54.084Z,11.75
2022-12-03T17:30:20.869Z,11.55
2022-12-03T17:32:47.421Z,10.05
2022-12-03T17:35:13.976Z,9.98
2022-12-03T17:37:40.485Z,10.45
2022-12-03T17:40:09.230Z,11.75
2022-12-03T17:42:35.888Z,10.48
2022-12-03T17:45:02.993Z,9.88
2022-12-03T17:47:29.487Z,10.48
2022-12-03T17:49:56.470Z,12.63
2022-12-03T17:52:23.200Z,10.80
2022-12-03T17:55:09.672Z,10.63
2022-12-03T17:57:36.332Z,13.30
2022-12-03T18:00:03.188Z,11.65
2022-12-03T18:02:39.105Z,11.68
2022-12-03T18:05:05.947Z,13.00
2022-12-03T18:07:32.627Z,12.95
2022-12-03T18:09:59.581Z,15.13
2022-12-03T18:12:26.171Z,12.48
2022-12-03T18:14:52.684Z,12.27
2022-12-03T18:17:19.253Z,11.18
2022-12-03T18:19:45.766Z,10.93
2022-12-03T18:22:12.283Z,12.10
2022-12-03T18:24:38.878Z,11.10
2022-12-03T18:27:05.375Z,14.98
2022-12-03T18:29:32.131Z,14.23
2022-12-03T18:31:58.780Z,12.23
2022-12-03T18:34:25.404Z,12.52
2022-12-03T18:36:52.174Z,11.82
2022-12-03T18:39:27.608Z,10.73
2022-12-03T18:41:54.243Z,12.75
2022-12-03T18:44:21.092Z,11.73
2022-12-03T18:46:55.154Z,13.20
2022-12-03T18:49:22.128Z,12.95
2022-12-03T18:51:49.828Z,13.80
2022-12-03T18:54:18.747Z,12.63
2022-12-03T18:56:45.321Z,12.30
2022-12-03T18:59:11.858Z,13.07
2022-12-03T19:01:38.396Z,12.27
2022-12-03T19:04:05.080Z,12.13
2022-12-03T19:06:32.072Z,12.80
2022-12-03T19:08:58.742Z,8.98
2022-12-03T19:11:25.330Z,11.95
2022-12-03T19:13:51.857Z,8.27
2022-12-03T19:16:18.602Z,10.43
2022-12-03T19:18:45.307Z,12.02
2022-12-03T19:21:14.169Z,10.73
2022-12-03T19:23:42.794Z,10.40
2022-12-03T19:26:14.533Z,13.98
2022-12-03T19:28:41.870Z,14.80
2022-12-03T19:31:16.968Z,12.02
2022-12-03T19:33:44.378Z,12.50
2022-12-03T19:36:26.192Z,10.57
2022-12-03T19:38:57.165Z,12.73
2022-12-03T19:41:26.371Z,14.20
2022-12-03T19:43:54.330Z,12.40
2022-12-03T19:46:22.334Z,12.27
2022-12-03T19:51:33.656Z,15.85
2022-12-03T19:54:02.665Z,13.57
2022-12-03T19:56:29.271Z,12.63
2022-12-03T19:58:56.451Z,13.88
2022-12-03T20:01:25.845Z,12.93
2022-12-03T20:03:54.949Z,12.10
2022-12-03T20:06:23.845Z,11.15
2022-12-03T20:08:51.391Z,12.35
2022-12-03T20:11:21.422Z,12.45
2022-12-03T20:13:51.654Z,12.95
2022-12-03T20:16:18.627Z,9.73
2022-12-03T20:18:46.966Z,13.50
2022-12-03T20:21:15.118Z,12.05
2022-12-03T20:23:41.721Z,9.25
2022-12-03T20:26:21.328Z,11.32
2022-12-03T20:28:48.690Z,14.00
2022-12-03T20:31:18.383Z,13.43
2022-12-03T20:33:48.147Z,12.57
2022-12-03T20:36:17.287Z,11.65
2022-12-03T20:38:44.345Z,10.70
2022-12-03T20:41:14.882Z,12.65
2022-12-03T20:43:41.794Z,12.30
2022-12-03T20:46:29.123Z,11.23
2022-12-03T20:48:56.654Z,10.35
2022-12-03T20:51:25.336Z,12.45
2022-12-03T20:53:52.076Z,11.60
2022-12-03T20:56:24.554Z,11.90
2022-12-03T20:58:51.044Z,10.38
2022-12-03T21:01:20.715Z,10.85
2022-12-03T21:03:48.235Z,10.05
2022-12-03T21:06:15.763Z,11.40
2022-12-03T21:08:43.733Z,10.23
2022-12-03T21:13:37.934Z,11.98
2022-12-03T21:16:07.006Z,11.73
2022-12-03T21:18:33.726Z,11.60
2022-12-03T21:21:02.161Z,12.63
2022-12-03T21:23:29.572Z,11.95
2022-12-03T21:26:07.167Z,10.63
2022-12-03T21:28:33.771Z,10.20
2022-12-03T21:31:05.800Z,12.60
2022-12-03T21:33:32.885Z,10.93
2022-12-03T21:35:59.942Z,11.45
2022-12-03T21:38:27.922Z,9.77
2022-12-03T21:40:55.045Z,11.43
2022-12-03T21:43:22.233Z,10.30
2022-12-03T21:45:48.986Z,10.33
2022-12-03T21:48:16.467Z,12.55
2022-12-03T21:50:43.523Z,9.55
2022-12-03T21:53:10.690Z,11.20
2022-12-03T21:55:40.454Z,12.23
2022-12-03T21:58:08.433Z,10.80
2022-12-03T22:00:35.252Z,10.30
2022-12-03T22:03:01.965Z,10.23
2022-12-03T22:05:28.552Z,13.65
2022-12-03T22:07:55.107Z,9.57
2022-12-03T22:10:21.762Z,8.40
2022-12-03T22:12:48.311Z,10.88
2022-12-03T22:15:18.678Z,8.73
2022-12-03T22:17:45.868Z,10.43
2022-12-03T22:20:12.434Z,11.73
2022-12-03T22:22:39.038Z,10.07
2022-12-03T22:25:05.841Z,10.60
2022-12-03T22:27:32.475Z,9.55
2022-12-03T22:29:59.002Z,9.73
2022-12-03T22:32:25.578Z,11.05
2022-12-03T22:34:52.027Z,8.73
2022-12-03T22:37:18.561Z,11.68
2022-12-03T22:39:45.015Z,8.82
2022-12-03T22:42:11.571Z,10.07
2022-12-03T22:44:38.145Z,8.38
2022-12-03T22:47:04.898Z,9.75
2022-12-03T22:49:31.436Z,9.02
2022-12-03T22:51:57.994Z,10.30
2022-12-03T22:54:24.699Z,9.18
2022-12-03T22:56:51.234Z,9.38
2022-12-03T22:59:17.910Z,10.38
2022-12-03T23:01:44.446Z,9.38
2022-12-03T23:04:11.935Z,8.23
2022-12-03T23:06:38.861Z,8.65
2022-12-03T23:09:06.878Z,10.38
2022-12-03T23:14:00.370Z,10.73
2022-12-03T23:16:30.481Z,11.10
2022-12-03T23:18:58.500Z,10.23
2022-12-03T23:21:29.851Z,10.02
2022-12-03T23:24:00.897Z,9.05
2022-12-03T23:26:28.524Z,8.85
2022-12-03T23:28:55.101Z,8.10
2022-12-03T23:31:28.036Z,9.23
2022-12-03T23:33:55.792Z,8.30
2022-12-03T23:36:24.452Z,7.80
2022-12-03T23:38:50.999Z,8.73
2022-12-03T23:41:19.922Z,7.13
2022-12-03T23:43:46.996Z,8.43
2022-12-03T23:46:15.904Z,7.78
2022-12-03T23:48:43.469Z,9.75
2022-12-03T23:51:15.911Z,8.95
2022-12-03T23:53:42.654Z,7.65
2022-12-03T23:56:12.036Z,7.45
2022-12-03T23:58:38.712Z,6.65
